Time;durP1;ratioP1;P1;durP2;ratioP2;P2;SDS_P1;SDS_P2;PMS_P1;PMS_P2;Temp;Humidity;BMP_temperature;BMP_pressure;BME280_temperature;BME280_humidity;BME280_pressure;Samples;Min_cycle;Max_cycle;Signal;HPM_P1;HPM_P2
2021/12/29 00:01:56;;;;;;;;;;;;;;;9.50;100.00;99262.34;5032472;28;20076;-71
2021/12/29 00:04:41;;;;;;;13.95;3.25;;;;;;;9.54;100.00;99279.66;5018434;28;20019;-71
2021/12/29 00:07:25;;;;;;;12.60;3.70;;;;;;;9.54;100.00;99300.94;5018311;28;20128;-71
2021/12/29 00:10:09;;;;;;;20.00;4.28;;;;;;;9.49;100.00;99292.63;5032860;28;20091;-71
2021/12/29 00:12:55;;;;;;;17.92;4.18;;;;;;;9.44;100.00;99294.91;5031940;28;20465;-71
2021/12/29 00:15:39;;;;;;;16.30;3.90;;;;;;;9.47;100.00;99295.44;5032776;28;20056;-71
2021/12/29 00:18:28;;;;;;;19.75;3.78;;;;;;;9.46;100.00;99306.25;5017617;28;20048;-71
2021/12/29 00:21:14;;;;;;;21.30;3.95;;;;;;;9.48;100.00;99318.38;5031644;28;20141;-71
2021/12/29 00:23:59;;;;;;;17.05;3.30;;;;;;;9.46;100.00;99327.53;5031907;28;20049;-71
2021/12/29 00:26:43;;;;;;;20.13;3.75;;;;;;;9.47;100.00;99327.34;5032065;28;20121;-71
2021/12/29 00:29:26;;;;;;;21.02;4.25;;;;;;;9.45;100.00;99320.53;5032425;28;20091;-71
2021/12/29 00:32:10;;;;;;;18.10;3.58;;;;;;;9.44;100.00;99326.84;5031528;28;20098;-71
2021/12/29 00:34:54;;;;;;;10.82;3.47;;;;;;;9.46;100.00;99331.00;5031816;28;20179;-71
2021/12/29 00:37:39;;;;;;;11.88;3.22;;;;;;;9.45;100.00;99339.13;5031554;28;20141;-71
2021/12/29 00:40:23;;;;;;;11.05;3.00;;;;;;;9.46;100.00;99324.88;5032348;28;20489;-71
2021/12/29 00:43:07;;;;;;;17.02;3.72;;;;;;;9.49;100.00;99329.88;5031752;28;20409;-71
2021/12/29 00:45:51;;;;;;;18.67;3.53;;;;;;;9.50;100.00;99352.81;5032716;28;20048;-71
2021/12/29 00:48:39;;;;;;;13.38;3.08;;;;;;;9.50;100.00;99347.50;5032665;28;20049;-71
2021/12/29 00:51:23;;;;;;;14.48;2.78;;;;;;;9.54;100.00;99360.31;5018119;28;20052;-71
2021/12/29 00:54:07;;;;;;;17.23;3.53;;;;;;;9.48;100.00;99365.44;5031635;28;20524;-71
2021/12/29 00:56:51;;;;;;;11.38;3.22;;;;;;;9.53;100.00;99379.09;5032618;28;20100;-71
2021/12/29 00:59:35;;;;;;;14.27;3.08;;;;;;;9.53;100.00;99384.41;5032240;28;20519;-71
2021/12/29 01:02:18;;;;;;;15.68;3.60;;;;;;;9.62;100.00;99383.47;5031287;28;20520;-71
2021/12/29 01:05:03;;;;;;;10.30;2.45;;;;;;;9.56;100.00;99384.13;5031510;28;20115;-71
2021/12/29 01:07:49;;;;;;;15.82;2.42;;;;;;;9.54;100.00;99391.41;5031506;28;20127;-71
2021/12/29 01:10:34;;;;;;;13.63;2.95;;;;;;;9.49;100.00;99391.06;5017682;28;20044;-71
2021/12/29 01:13:28;;;;;;;10.10;2.38;;;;;;;9.49;100.00;99409.69;5017271;28;20048;-71
2021/12/29 01:16:55;;;;;;;13.13;3.17;;;;;;;9.46;100.00;99410.00;5031248;28;20084;-71
2021/12/29 01:19:22;;;;;;;9.55;2.42;;;;;;;9.44;100.00;99423.44;5030918;28;20040;-72
2021/12/29 01:22:06;;;;;;;12.55;2.67;;;;;;;9.46;100.00;99421.47;5031079;28;20137;-71
2021/12/29 01:24:50;;;;;;;14.43;2.38;;;;;;;9.47;100.00;99415.13;5017384;28;20072;-71
2021/12/29 01:27:34;;;;;;;;;;;;;;;9.49;100.00;99430.97;5031613;28;20251;-71
2021/12/29 01:30:18;;;;;;;15.80;3.10;;;;;;;9.47;100.00;99414.31;5032037;28;20354;-71
2021/12/29 01:33:05;;;;;;;;;;;;;;;9.43;100.00;99442.22;5031878;28;20155;-71
2021/12/29 01:35:49;;;;;;;11.05;2.30;;;;;;;9.49;100.00;99452.25;5017675;28;20027;-71
2021/12/29 01:38:33;;;;;;;8.25;1.80;;;;;;;9.54;100.00;99455.25;5030921;28;20515;-71
2021/12/29 01:41:17;;;;;;;8.32;2.40;;;;;;;9.55;100.00;99465.75;5030976;28;20075;-71
2021/12/29 01:44:01;;;;;;;;;;;;;;;9.51;100.00;99483.03;5021193;28;20150;-71
2021/12/29 01:46:45;;;;;;;11.50;1.95;;;;;;;9.53;100.00;99464.22;5034485;28;19936;-71
2021/12/29 01:49:30;;;;;;;12.93;1.95;;;;;;;9.57;100.00;99481.56;5034526;28;20045;-71
2021/12/29 01:52:20;;;;;;;8.82;2.10;;;;;;;9.52;100.00;99486.50;5034586;28;20052;-71
2021/12/29 01:55:06;;;;;;;17.52;3.00;;;;;;;9.52;100.00;99499.81;5035543;28;20048;-71
2021/12/29 01:57:50;;;;;;;15.43;2.92;;;;;;;9.53;100.00;99518.28;5034454;28;20149;-71
2021/12/29 02:00:36;;;;;;;8.63;2.42;;;;;;;9.54;100.00;99487.19;5020491;28;20080;-71
2021/12/29 02:03:20;;;;;;;7.00;2.03;;;;;;;9.49;100.00;99498.28;5035115;28;20136;-71
2021/12/29 02:06:04;;;;;;;10.90;2.60;;;;;;;9.48;100.00;99496.63;5034512;28;20064;-71
2021/12/29 02:08:48;;;;;;;12.65;2.78;;;;;;;9.52;100.00;99499.81;5020273;28;20052;-71
2021/12/29 02:11:33;;;;;;;7.78;2.45;;;;;;;9.49;100.00;99495.63;5034975;28;20056;-71
2021/12/29 02:14:18;;;;;;;13.85;2.50;;;;;;;9.57;100.00;99513.50;5034906;28;20060;-71
2021/12/29 02:17:02;;;;;;;12.65;2.25;;;;;;;9.56;100.00;99522.47;5035083;28;20048;-71
2021/12/29 02:19:47;;;;;;;12.35;2.47;;;;;;;9.57;100.00;99529.47;5019592;28;20404;-71
2021/12/29 02:22:39;;;;;;;7.93;1.80;;;;;;;9.52;100.00;99524.59;5035199;28;20048;-71
2021/12/29 02:25:44;;;;;;;15.65;2.22;;;;;;;9.56;100.00;99522.47;5034711;28;20068;-71
2021/12/29 02:28:36;;;;;;;10.93;2.08;;;;;;;9.58;100.00;99545.25;5034228;28;20531;-71
2021/12/29 02:31:20;;;;;;;6.15;1.90;;;;;;;9.58;100.00;99544.44;5033460;28;20095;-71
2021/12/29 02:34:07;;;;;;;5.95;1.83;;;;;;;9.53;100.00;99552.03;5033380;28;20199;-71
2021/12/29 02:36:51;;;;;;;8.18;2.10;;;;;;;9.57;100.00;99550.75;5033745;28;20057;-71
2021/12/29 02:39:38;;;;;;;9.73;1.88;;;;;;;9.58;100.00;99557.72;5019414;28;20164;-71
2021/12/29 02:42:26;;;;;;;7.15;1.70;;;;;;;9.54;100.00;99573.16;5033621;28;20404;-71
2021/12/29 02:45:17;;;;;;;8.40;2.25;;;;;;;9.58;100.00;99574.50;5020021;28;20057;-71
2021/12/29 02:48:01;;;;;;;9.65;2.03;;;;;;;9.55;100.00;99587.28;5034480;28;20044;-71
2021/12/29 02:50:45;;;;;;;3.45;1.35;;;;;;;9.54;100.00;99577.63;5034630;28;20508;-71
2021/12/29 02:53:30;;;;;;;7.78;1.77;;;;;;;9.54;100.00;99585.63;5034271;28;20099;-71
2021/12/29 02:56:14;;;;;;;6.40;1.98;;;;;;;9.50;100.00;99585.09;5034216;28;20424;-71
2021/12/29 02:58:58;;;;;;;8.18;2.10;;;;;;;9.54;100.00;99588.28;5033150;28;20043;-71
2021/12/29 03:01:42;;;;;;;7.00;1.75;;;;;;;9.57;100.00;99590.66;5032942;28;20072;-71
2021/12/29 03:04:26;;;;;;;4.15;1.60;;;;;;;9.63;100.00;99604.19;5032879;28;20044;-71
2021/12/29 03:07:10;;;;;;;9.07;1.73;;;;;;;9.59;100.00;99601.97;5032903;28;20056;-71
2021/12/29 03:09:54;;;;;;;9.68;2.63;;;;;;;9.60;100.00;99600.97;5034050;28;20049;-71
2021/12/29 03:12:38;;;;;;;3.65;1.75;;;;;;;9.65;100.00;99611.97;5033084;28;20095;-71
2021/12/29 03:15:22;;;;;;;8.80;1.98;;;;;;;9.64;100.00;99620.97;5032725;28;20167;-71
2021/12/29 03:18:06;;;;;;;4.68;1.25;;;;;;;9.65;100.00;99615.50;5033922;28;20495;-73
2021/12/29 03:20:51;;;;;;;7.63;1.35;;;;;;;9.61;100.00;99610.63;5018872;28;20144;-71
2021/12/29 03:23:35;;;;;;;6.40;2.13;;;;;;;9.61;100.00;99610.63;5018687;28;20415;-71
2021/12/29 03:26:19;;;;;;;9.15;1.58;;;;;;;9.60;100.00;99598.31;5018770;28;20083;-71
2021/12/29 03:29:04;;;;;;;4.40;1.30;;;;;;;9.59;100.00;99613.44;5033642;28;20052;-71
2021/12/29 03:31:48;;;;;;;4.72;1.50;;;;;;;9.56;100.00;99611.09;5032417;28;20080;-71
2021/12/29 03:34:32;;;;;;;9.73;2.05;;;;;;;9.52;100.00;99617.72;5032634;28;20095;-71
2021/12/29 03:37:16;;;;;;;5.07;1.38;;;;;;;9.57;100.00;99619.94;5032646;28;20044;-72
2021/12/29 03:40:00;;;;;;;6.13;1.60;;;;;;;9.54;100.00;99620.22;5032154;28;20404;-72
2021/12/29 03:42:44;;;;;;;2.97;1.00;;;;;;;9.47;100.00;99629.81;5018607;28;20051;-72
2021/12/29 03:45:28;;;;;;;5.97;1.30;;;;;;;9.49;100.00;99633.16;5032420;28;20561;-72
2021/12/29 03:48:13;;;;;;;3.08;1.20;;;;;;;9.54;100.00;99625.53;5032414;28;20048;-72
2021/12/29 03:50:58;;;;;;;4.10;0.98;;;;;;;9.50;100.00;99635.63;5033089;28;20412;-72
2021/12/29 03:53:42;;;;;;;8.07;1.45;;;;;;;9.52;100.00;99652.31;5018369;28;20103;-72
2021/12/29 03:56:26;;;;;;;4.60;1.17;;;;;;;9.60;100.00;99651.53;5054997;22;20092;-69
2021/12/29 03:59:10;;;;;;;;;;;;;;;9.57;100.00;99647.34;5033312;28;20044;-71
2021/12/29 04:01:54;;;;;;;3.78;1.00;;;;;;;9.49;100.00;99635.81;5032194;28;20007;-71
2021/12/29 04:04:38;;;;;;;4.85;1.33;;;;;;;9.49;100.00;99647.28;5031564;28;20099;-71
2021/12/29 04:07:22;;;;;;;2.30;1.02;;;;;;;9.56;100.00;99650.19;5032743;28;20134;-70
2021/12/29 04:10:08;;;;;;;4.32;1.67;;;;;;;9.53;100.00;99655.78;5032828;28;20049;-68
2021/12/29 04:12:52;;;;;;;1.85;1.30;;;;;;;9.51;100.00;99657.78;5031696;28;20052;-70
2021/12/29 04:15:37;;;;;;;4.53;1.40;;;;;;;9.51;100.00;99660.44;5032760;28;20132;-70
2021/12/29 04:18:27;;;;;;;2.20;0.93;;;;;;;9.47;100.00;99656.41;5031973;28;20052;-70
2021/12/29 04:21:11;;;;;;;5.43;1.60;;;;;;;9.48;100.00;99671.38;5031937;28;20520;-70
2021/12/29 04:23:54;;;;;;;;;;;;;;;9.55;100.00;99657.31;5032290;28;20048;-71
2021/12/29 04:26:39;;;;;;;1.83;1.00;;;;;;;9.56;100.00;99658.16;5032742;28;19959;-71
2021/12/29 04:29:24;;;;;;;3.15;0.80;;;;;;;9.53;100.00;99655.78;5031979;28;20041;-70
2021/12/29 04:32:08;;;;;;;3.30;0.93;;;;;;;9.54;100.00;99662.78;5032766;28;20044;-70
2021/12/29 04:34:52;;;;;;;1.08;0.82;;;;;;;9.54;100.00;99670.75;5031727;28;20048;-71
2021/12/29 04:37:36;;;;;;;5.40;1.05;;;;;;;9.49;100.00;99681.03;5032656;28;20067;-71
2021/12/29 04:40:20;;;;;;;3.25;0.90;;;;;;;9.49;100.00;99681.03;5031592;28;20525;-71
2021/12/29 04:43:04;;;;;;;;;;;;;;;9.44;100.00;99704.59;5032233;28;20136;-70
2021/12/29 04:45:49;;;;;;;0.90;0.77;;;;;;;9.18;100.00;99693.00;5031564;28;19970;-70
2021/12/29 04:48:38;;;;;;;2.60;0.90;;;;;;;9.05;100.00;99703.16;5031384;28;20083;-71
2021/12/29 04:51:33;;;;;;;2.35;0.82;;;;;;;9.01;100.00;99707.09;5032847;28;20083;-70
2021/12/29 04:54:16;;;;;;;2.67;0.80;;;;;;;9.02;100.00;99711.41;5032434;28;20044;-70
2021/12/29 04:57:01;;;;;;;2.72;1.23;;;;;;;9.01;100.00;99717.72;5031324;28;20127;-70
2021/12/29 04:59:45;;;;;;;2.95;1.30;;;;;;;8.95;100.00;99721.81;5031409;28;20103;-71
2021/12/29 05:02:29;;;;;;;2.47;1.40;;;;;;;8.96;100.00;99720.81;5032360;28;20096;-70
2021/12/29 05:08:28;;;;;;;7.07;1.90;;;;;;;8.93;100.00;99726.44;4991439;28;20041;-70
2021/12/29 05:11:14;;;;;;;4.93;1.65;;;;;;;8.93;100.00;99730.91;5031350;28;20041;-71
2021/12/29 05:13:58;;;;;;;12.30;3.13;;;;;;;8.95;100.00;99731.63;5017409;28;20501;-70
2021/12/29 05:16:41;;;;;;;14.20;2.83;;;;;;;8.86;100.00;99735.97;5032520;28;20079;-70
2021/12/29 05:19:25;;;;;;;21.92;3.35;;;;;;;8.85;100.00;99734.31;5035088;28;20492;-70
2021/12/29 05:22:09;;;;;;;18.98;3.90;;;;;;;8.83;100.00;99741.59;5036367;28;20080;-71
2021/12/29 05:24:53;;;;;;;23.85;4.03;;;;;;;8.83;100.00;99749.56;5035047;28;20515;-71
2021/12/29 05:27:37;;;;;;;14.63;3.30;;;;;;;8.84;100.00;99743.25;5034788;28;20060;-71
2021/12/29 05:30:21;;;;;;;;;;;;;;;8.85;100.00;99747.59;5036072;28;20072;-70
2021/12/29 05:33:06;;;;;;;13.73;3.63;;;;;;;8.86;100.00;99745.78;5034751;28;20394;-71
2021/12/29 05:35:50;;;;;;;19.42;3.67;;;;;;;8.84;100.00;99739.75;5035009;28;20503;-71
2021/12/29 05:38:34;;;;;;;17.55;3.40;;;;;;;8.84;100.00;99750.38;5034697;28;20044;-70
2021/12/29 05:41:20;;;;;;;19.55;2.75;;;;;;;8.87;100.00;99756.25;5034778;28;20285;-71
2021/12/29 05:44:04;;;;;;;15.50;4.10;;;;;;;8.90;100.00;99757.78;5034707;28;20048;-70
2021/12/29 05:46:48;;;;;;;17.05;3.40;;;;;;;8.92;100.00;99747.84;5035791;28;20107;-71
2021/12/29 05:49:32;;;;;;;18.38;3.65;;;;;;;8.85;100.00;99749.44;5034357;28;20047;-71
2021/12/29 05:52:16;;;;;;;;;;;;;;;8.81;100.00;99745.38;5035258;28;20134;-70
2021/12/29 05:55:00;;;;;;;13.68;3.10;;;;;;;8.83;100.00;99757.53;5035486;28;20281;-71
2021/12/29 05:57:44;;;;;;;19.77;3.60;;;;;;;8.79;100.00;99756.16;5035009;28;20052;-71
2021/12/29 06:00:29;;;;;;;22.70;4.03;;;;;;;8.82;100.00;99757.69;5034304;28;20123;-70
2021/12/29 06:03:13;;;;;;;22.33;3.30;;;;;;;8.81;100.00;99763.97;5034248;28;20092;-70
2021/12/29 06:05:57;;;;;;;21.00;3.35;;;;;;;8.77;100.00;99767.91;5034184;28;20134;-70
2021/12/29 06:08:41;;;;;;;15.63;3.40;;;;;;;8.79;100.00;99776.56;5035502;28;20098;-70
2021/12/29 06:11:25;;;;;;;16.48;3.90;;;;;;;8.73;100.00;99775.34;5034131;28;20068;-71
2021/12/29 06:14:10;;;;;;;12.88;4.13;;;;;;;8.78;100.00;99788.19;5033838;28;20075;-70
2021/12/29 06:16:54;;;;;;;10.73;3.38;;;;;;;8.73;100.00;99777.16;5034977;28;20111;-70
2021/12/29 06:19:38;;;;;;;17.08;3.75;;;;;;;8.73;100.00;99783.31;5033822;28;20064;-70
2021/12/29 06:22:22;;;;;;;17.95;4.18;;;;;;;8.81;100.00;99782.59;5034883;28;20130;-70
2021/12/29 06:25:09;;;;;;;23.33;3.50;;;;;;;8.82;100.00;99782.44;5033743;28;20047;-71
2021/12/29 06:27:53;;;;;;;17.48;2.88;;;;;;;8.84;100.00;99785.78;5033122;28;20504;-71
2021/12/29 06:30:37;;;;;;;16.90;3.03;;;;;;;8.84;100.00;99795.56;5034833;28;20087;-70
2021/12/29 06:33:21;;;;;;;19.70;3.10;;;;;;;8.81;100.00;99790.56;5033705;28;20628;-71
2021/12/29 06:36:05;;;;;;;15.13;3.38;;;;;;;8.79;100.00;99809.31;5033433;28;20096;-71
2021/12/29 06:38:49;;;;;;;;;;;;;;;8.80;100.00;99812.81;5033971;28;20116;-71
2021/12/29 06:41:33;;;;;;;19.90;3.83;;;;;;;8.83;100.00;99810.69;5033463;28;20055;-71
2021/12/29 06:44:17;;;;;;;;;;;;;;;8.77;100.00;99807.78;5034784;28;20438;-70
2021/12/29 06:47:01;;;;;;;10.90;3.00;;;;;;;8.74;100.00;99822.19;5033675;28;19920;-71
2021/12/29 06:49:45;;;;;;;14.65;3.00;;;;;;;8.78;100.00;99823.56;5019059;28;20092;-69
2021/12/29 06:52:29;;;;;;;18.98;3.17;;;;;;;8.79;100.00;99830.59;5034218;28;20055;-71
2021/12/29 06:55:13;;;;;;;;;;;;;;;8.83;100.00;99831.97;5034812;28;20500;-71
2021/12/29 06:57:56;;;;;;;16.97;3.93;;;;;;;8.81;100.00;99833.06;5033953;28;19924;-71
2021/12/29 07:00:41;;;;;;;17.40;2.85;;;;;;;8.81;100.00;99830.41;5034267;28;20509;-70
2021/12/29 07:03:25;;;;;;;12.60;2.85;;;;;;;8.80;100.00;99832.25;5034310;28;20131;-71
2021/12/29 07:06:09;;;;;;;14.07;2.50;;;;;;;8.85;100.00;99827.34;5033993;28;20535;-70
2021/12/29 07:08:53;;;;;;;12.15;2.88;;;;;;;8.89;100.00;99836.72;5033120;28;20095;-71
2021/12/29 07:11:37;;;;;;;13.23;2.97;;;;;;;8.89;100.00;99835.84;5033044;28;20515;-71
2021/12/29 07:14:22;;;;;;;14.02;2.60;;;;;;;8.88;100.00;99834.19;5034089;28;20068;-71
2021/12/29 07:17:06;;;;;;;12.27;2.42;;;;;;;8.88;100.00;99840.31;5032708;28;20511;-70
2021/12/29 07:19:50;;;;;;;10.10;2.13;;;;;;;8.80;100.00;99845.53;5032743;28;20053;-70
2021/12/29 07:22:34;;;;;;;12.68;2.13;;;;;;;8.70;100.00;99857.16;5032821;28;20056;-71
2021/12/29 07:25:18;;;;;;;15.77;2.67;;;;;;;8.67;100.00;99857.44;5032799;28;20099;-70
2021/12/29 07:28:02;;;;;;;;;;;;;;;8.68;100.00;99861.78;5033875;28;20045;-71
2021/12/29 07:30:46;;;;;;;8.07;2.47;;;;;;;8.68;100.00;99864.44;5032692;28;20292;-71
2021/12/29 07:33:30;;;;;;;10.48;1.98;;;;;;;8.67;100.00;99876.06;5033652;28;20095;-72
2021/12/29 07:36:14;;;;;;;13.32;2.28;;;;;;;8.71;100.00;99872.97;5032692;28;20460;-71
2021/12/29 07:38:58;;;;;;;11.02;2.25;;;;;;;8.71;100.00;99878.28;5033200;28;20166;-70
2021/12/29 07:41:42;;;;;;;11.35;2.00;;;;;;;8.75;100.00;99884.97;5033103;28;20052;-70
2021/12/29 07:44:27;;;;;;;7.13;1.88;;;;;;;8.80;100.00;99885.41;5018535;28;20052;-71
2021/12/29 07:47:13;;;;;;;8.60;1.90;;;;;;;8.82;100.00;99880.78;5033328;28;20080;-70
2021/12/29 07:49:57;;;;;;;6.50;1.73;;;;;;;8.86;100.00;99886.66;5033273;28;20044;-70
2021/12/29 07:52:41;;;;;;;6.75;2.00;;;;;;;8.87;100.00;99888.34;5033290;28;20544;-71
2021/12/29 07:55:25;;;;;;;4.90;1.63;;;;;;;8.87;100.00;99897.13;5032272;28;20052;-72
2021/12/29 07:58:09;;;;;;;4.55;1.80;;;;;;;8.86;100.00;99889.31;5033104;28;20094;-71
2021/12/29 08:00:53;;;;;;;10.65;1.75;;;;;;;8.86;100.00;99897.28;5033014;28;20099;-71
2021/12/29 08:03:42;;;;;;;7.65;2.17;;;;;;;8.83;100.00;99894.91;5032131;28;20063;-71
2021/12/29 08:06:27;;;;;;;5.60;1.70;;;;;;;8.83;100.00;99900.22;5031999;28;20114;-71
2021/12/29 08:09:11;;;;;;;5.00;1.50;;;;;;;8.87;100.00;99901.63;5031977;28;20060;-70
2021/12/29 08:11:55;;;;;;;7.50;1.48;;;;;;;8.90;100.00;99902.19;5018088;28;20191;-70
2021/12/29 08:14:38;;;;;;;6.78;1.50;;;;;;;8.90;100.00;99911.97;5031711;28;20052;-70
2021/12/29 08:17:22;;;;;;;2.22;1.30;;;;;;;8.95;100.00;99904.41;5032973;28;20095;-71
2021/12/29 08:20:07;;;;;;;3.55;1.58;;;;;;;8.97;100.00;99913.91;5031810;28;20065;-71
2021/12/29 08:22:52;;;;;;;4.97;1.35;;;;;;;9.01;100.00;99910.00;5031825;28;20049;-69
2021/12/29 08:25:36;;;;;;;1.73;1.05;;;;;;;9.05;100.00;99910.56;5032598;28;20051;-71
2021/12/29 08:28:22;;;;;;;4.07;1.50;;;;;;;9.11;100.00;99918.78;5031378;28;20052;-70
2021/12/29 08:31:07;;;;;;;3.47;1.15;;;;;;;9.17;100.00;99917.38;5032805;28;20132;-71
2021/12/29 08:33:51;;;;;;;5.10;1.70;;;;;;;9.21;100.00;99911.63;5031490;28;20147;-70
2021/12/29 08:36:35;;;;;;;5.72;1.20;;;;;;;9.20;100.00;99901.97;5032682;28;20052;-70
2021/12/29 08:39:19;;;;;;;6.25;1.60;;;;;;;9.26;100.00;99911.19;5032753;28;20133;-71
2021/12/29 08:42:03;;;;;;;6.03;1.50;;;;;;;9.29;100.00;99905.59;5032669;28;20072;-69
2021/12/29 08:44:46;;;;;;;4.32;1.40;;;;;;;9.31;100.00;99890.31;5032490;28;20247;-71
2021/12/29 08:47:30;;;;;;;4.05;1.45;;;;;;;9.30;100.00;99888.63;5031822;28;20047;-70
2021/12/29 08:50:16;;;;;;;3.60;1.60;;;;;;;9.35;100.00;99894.34;5032688;28;20141;-70
2021/12/29 08:53:02;;;;;;;3.72;1.27;;;;;;;9.32;100.00;99897.31;5035387;28;20107;-70
2021/12/29 08:55:48;;;;;;;4.88;1.23;;;;;;;9.36;100.00;99902.19;5036322;28;20052;-70
2021/12/29 08:58:32;;;;;;;5.03;1.63;;;;;;;9.32;100.00;99907.94;5035452;28;20508;-70
2021/12/29 09:01:16;;;;;;;;;;;;;;;9.27;100.00;99904.91;5022002;28;20057;-70
2021/12/29 09:04:00;;;;;;;4.43;1.90;;;;;;;9.21;100.00;99889.50;5021404;28;19924;-70
2021/12/29 09:06:44;;;;;;;7.88;2.13;;;;;;;9.17;100.00;99877.50;5035284;28;20281;-71
2021/12/29 09:09:27;;;;;;;6.43;1.90;;;;;;;9.16;100.00;99897.09;5036357;28;20107;-70
2021/12/29 09:12:11;;;;;;;12.85;2.83;;;;;;;9.15;100.00;99896.22;5036384;28;20056;-70
2021/12/29 09:14:55;;;;;;;8.93;2.00;;;;;;;9.16;100.00;99894.44;5035485;28;20064;-71
2021/12/29 09:17:39;;;;;;;7.18;2.20;;;;;;;9.22;100.00;99899.16;5036054;28;20056;-70
2021/12/29 09:20:31;;;;;;;4.50;1.92;;;;;;;9.27;100.00;99900.41;5034860;28;20052;-70
2021/12/29 09:23:16;;;;;;;6.47;1.95;;;;;;;9.26;100.00;99906.69;5036186;28;20060;-70
2021/12/29 09:26:00;;;;;;;6.13;1.80;;;;;;;9.33;100.00;99922.91;5035018;28;20107;-70
2021/12/29 09:28:46;;;;;;;7.32;2.33;;;;;;;9.36;100.00;99930.63;5034864;28;20104;-70
2021/12/29 09:31:30;;;;;;;8.00;1.70;;;;;;;9.39;100.00;99935.66;5020853;28;20064;-70
2021/12/29 09:34:14;;;;;;;4.22;1.92;;;;;;;9.40;100.00;99938.16;5020932;28;20099;-71
2021/12/29 09:36:57;;;;;;;;;;;;;;;9.42;100.00;99946.00;5035212;28;20044;-70
2021/12/29 09:39:41;;;;;;;8.33;1.80;;;;;;;9.47;100.00;99949.91;5022246;28;19975;-71
2021/12/29 09:42:26;;;;;;;8.40;1.80;;;;;;;9.46;100.00;99964.19;5035489;28;20314;-71
2021/12/29 09:45:10;;;;;;;7.43;2.17;;;;;;;9.50;100.00;99956.75;5035526;28;20486;-70
2021/12/29 09:47:57;;;;;;;8.07;2.13;;;;;;;9.50;100.00;99954.91;5036394;28;20100;-70
2021/12/29 09:50:42;;;;;;;8.63;1.85;;;;;;;9.46;100.00;99939.41;5035631;28;20068;-70
2021/12/29 09:53:26;;;;;;;8.43;2.50;;;;;;;9.46;100.00;99945.56;5034290;28;20563;-69
2021/12/29 09:56:11;;;;;;;8.68;2.40;;;;;;;9.51;100.00;99945.97;5034097;28;20098;-70
2021/12/29 09:58:55;;;;;;;8.13;1.63;;;;;;;9.55;100.00;99950.03;5020705;28;20048;-70
2021/12/29 10:01:39;;;;;;;;;;;;;;;9.59;100.00;99947.91;5035766;28;20116;-69
2021/12/29 10:04:24;;;;;;;7.47;2.10;;;;;;;9.59;100.00;99938.09;5034368;28;20356;-70
2021/12/29 10:07:13;;;;;;;5.45;1.85;;;;;;;9.59;100.00;99948.72;5034176;28;20048;-71
2021/12/29 10:09:57;;;;;;;5.60;1.65;;;;;;;9.63;100.00;99935.97;5034264;28;20056;-71
2021/12/29 10:12:43;;;;;;;3.95;1.70;;;;;;;9.63;100.00;99936.81;5033983;28;20156;-71
2021/12/29 10:15:32;;;;;;;7.47;2.10;;;;;;;9.61;100.00;99948.59;5033851;28;20118;-71
2021/12/29 10:18:25;;;;;;;5.75;2.25;;;;;;;9.57;100.00;99934.75;5033790;28;20102;-69
2021/12/29 10:21:13;;;;;;;4.50;2.00;;;;;;;9.58;100.00;99938.25;5035004;28;20056;-70
2021/12/29 10:23:58;;;;;;;7.22;1.70;;;;;;;9.59;100.00;99930.09;5034939;28;20500;-71
2021/12/29 10:26:49;;;;;;;8.05;2.40;;;;;;;9.61;100.00;99929.97;5033563;28;20048;-71
2021/12/29 10:29:32;;;;;;;5.53;2.15;;;;;;;9.59;100.00;99923.97;5033749;28;20076;-70
2021/12/29 10:32:22;;;;;;;5.80;2.10;;;;;;;9.64;100.00;99927.00;5034535;28;20110;-70
2021/12/29 10:35:07;;;;;;;5.40;2.25;;;;;;;9.66;100.00;99925.03;5034524;28;20076;-71
2021/12/29 10:37:53;;;;;;;7.75;2.20;;;;;;;9.68;100.00;99920.44;5033430;28;20083;-70
2021/12/29 10:40:37;;;;;;;4.63;1.80;;;;;;;9.70;100.00;99931.75;5033593;28;20051;-70
2021/12/29 10:43:21;;;;;;;;;;;;;;;9.74;100.00;99933.97;5033762;28;20433;-71
2021/12/29 10:46:17;;;;;;;6.05;2.10;;;;;;;9.65;100.00;99936.66;5034531;28;19924;-70
2021/12/29 10:49:06;;;;;;;11.07;1.67;;;;;;;9.63;100.00;99942.16;5033497;28;20037;-71
2021/12/29 10:51:50;;;;;;;2.97;1.63;;;;;;;9.66;100.00;99941.00;5034314;28;20099;-70
2021/12/29 10:54:36;;;;;;;7.82;1.83;;;;;;;9.65;100.00;99926.00;5033337;28;20147;-71
2021/12/29 10:57:20;;;;;;;5.15;2.00;;;;;;;9.59;100.00;99934.59;5034247;28;20099;-71
2021/12/29 11:02:52;;;;;;;6.40;1.92;;;;;;;9.60;100.00;99926.47;5013383;28;20112;-71
2021/12/29 11:05:38;;;;;;;14.77;2.17;;;;;;;9.61;100.00;99924.66;5014407;28;20108;-70
2021/12/29 11:08:22;;;;;;;6.20;2.00;;;;;;;9.62;100.00;99924.50;4999240;28;20048;-71
2021/12/29 11:11:06;;;;;;;10.13;2.40;;;;;;;9.61;100.00;99920.19;5013291;28;20048;-71
2021/12/29 11:13:53;;;;;;;8.13;2.20;;;;;;;9.58;100.00;99916.97;5013040;28;20131;-70
2021/12/29 11:16:38;;;;;;;8.05;2.38;;;;;;;9.57;100.00;99912.63;5013504;28;20062;-70
2021/12/29 11:19:22;;;;;;;5.88;1.98;;;;;;;9.55;100.00;99910.09;5012789;28;20092;-70
2021/12/29 11:22:13;;;;;;;;;;;;;;;9.64;100.00;99911.88;4999672;28;20145;-71
2021/12/29 11:24:59;;;;;;;6.05;2.00;;;;;;;9.65;100.00;99902.91;5013176;28;19980;-71
2021/12/29 11:27:45;;;;;;;6.82;2.40;;;;;;;9.68;100.00;99897.28;5014387;28;20501;-71
2021/12/29 11:30:29;;;;;;;8.88;2.30;;;;;;;9.66;100.00;99901.94;5013739;28;20177;-70
2021/12/29 11:33:13;;;;;;;8.05;2.22;;;;;;;9.66;100.00;99893.09;4999093;28;20064;-70
2021/12/29 11:35:58;;;;;;;5.47;2.10;;;;;;;9.70;100.00;99897.16;4998745;28;20132;-70
2021/12/29 11:38:41;;;;;;;4.95;2.13;;;;;;;9.68;100.00;99894.63;5012451;28;20064;-70
2021/12/29 11:41:25;;;;;;;7.53;2.47;;;;;;;9.71;100.00;99896.16;5012706;28;20061;-70
2021/12/29 11:44:09;;;;;;;9.02;2.35;;;;;;;9.77;100.00;99895.59;5012595;28;20052;-70
2021/12/29 11:46:53;;;;;;;6.90;2.47;;;;;;;9.86;100.00;99887.53;5013377;28;20187;-69
2021/12/29 11:49:37;;;;;;;7.10;2.53;;;;;;;9.97;100.00;99889.16;4985368;28;20049;-70
2021/12/29 11:52:33;;;;;;;;;;;;;;;10.00;100.00;99884.34;5012788;28;20052;-70
2021/12/29 11:55:22;;;;;;;7.93;2.50;;;;;;;9.98;100.00;99870.38;5013798;28;19936;-70
2021/12/29 11:58:08;;;;;;;8.55;2.22;;;;;;;10.00;100.00;99875.53;5012448;28;20461;-70
2021/12/29 12:01:23;;;;;;;6.47;2.90;;;;;;;9.99;100.00;99861.38;5012325;28;20052;-70
2021/12/29 12:04:11;;;;;;;8.55;2.45;;;;;;;9.96;100.00;99871.50;5008235;28;20528;-69
2021/12/29 12:07:04;;;;;;;14.88;3.25;;;;;;;9.95;100.00;99875.16;5013090;28;20068;-70
2021/12/29 12:09:49;;;;;;;8.32;2.80;;;;;;;9.96;100.00;99868.81;5012061;28;20141;-70
2021/12/29 12:12:35;;;;;;;13.98;3.80;;;;;;;9.92;100.00;99875.44;5012040;28;20148;-70
2021/12/29 12:15:37;;;;;;;15.85;3.10;;;;;;;9.98;100.00;99880.19;5012018;28;20156;-70
2021/12/29 12:18:22;;;;;;;6.70;2.70;;;;;;;10.00;100.00;99878.22;5011818;28;20049;-70
2021/12/29 12:21:06;;;;;;;18.27;3.70;;;;;;;9.86;100.00;99884.88;5011901;28;20068;-70
2021/12/29 12:23:51;;;;;;;14.68;3.47;;;;;;;9.56;100.00;99895.81;5013114;28;20052;-70
2021/12/29 12:26:35;;;;;;;18.00;3.72;;;;;;;9.47;100.00;99895.88;5011683;28;20096;-70
2021/12/29 12:29:21;;;;;;;21.27;3.20;;;;;;;9.51;100.00;99886.59;5013176;28;20122;-70
2021/12/29 12:32:13;;;;;;;13.18;3.30;;;;;;;9.53;100.00;99885.47;5012834;28;20104;-70
2021/12/29 12:35:01;;;;;;;19.08;3.40;;;;;;;9.49;100.00;99892.06;5013088;28;20112;-70
2021/12/29 12:37:46;;;;;;;27.70;4.40;;;;;;;9.39;100.00;99899.22;5012042;28;20489;-71
2021/12/29 12:40:31;;;;;;;24.63;4.97;;;;;;;9.37;100.00;99903.03;5011604;28;20454;-69
2021/12/29 12:43:17;;;;;;;18.77;4.25;;;;;;;9.33;100.00;99893.66;4998135;28;20141;-70
2021/12/29 12:46:01;;;;;;;29.33;5.30;;;;;;;9.28;100.00;99906.56;5011924;28;20434;-70
2021/12/29 12:48:46;;;;;;;23.90;4.70;;;;;;;9.29;100.00;99894.94;5012708;28;20053;-70
2021/12/29 12:51:30;;;;;;;25.80;5.22;;;;;;;9.29;100.00;99898.44;5012903;28;20052;-70
2021/12/29 12:54:18;;;;;;;27.58;5.88;;;;;;;9.26;100.00;99904.03;5011812;28;20056;-70
2021/12/29 12:57:03;;;;;;;23.80;5.60;;;;;;;9.24;100.00;99910.47;5011887;28;20065;-70
2021/12/29 12:59:46;;;;;;;20.75;5.40;;;;;;;9.26;100.00;99904.03;5012610;28;20133;-69
2021/12/29 13:02:36;;;;;;;20.10;4.88;;;;;;;9.34;100.00;99908.63;4997865;28;20112;-70
2021/12/29 13:05:26;;;;;;;21.90;5.78;;;;;;;9.29;100.00;99913.56;5013107;28;20129;-71